createdAt,value
2023-05-12T00:01:16.647Z,100.00
2023-05-12T00:03:44.536Z,100.00
2023-05-12T00:06:12.609Z,100.00
2023-05-12T00:08:40.888Z,100.00
2023-05-12T00:11:08.825Z,100.00
2023-05-12T00:13:36.799Z,100.00
2023-05-12T00:16:05.303Z,100.00
2023-05-12T00:18:33.127Z,100.00
2023-05-12T00:21:01.239Z,100.00
2023-05-12T00:23:29.061Z,100.00
2023-05-12T00:25:57.269Z,100.00
2023-05-12T00:28:25.230Z,100.00
2023-05-12T00:30:53.077Z,100.00
2023-05-12T00:33:21.055Z,100.00
2023-05-12T00:35:49.362Z,100.00
2023-05-12T00:38:16.926Z,100.00
2023-05-12T00:40:44.849Z,100.00
2023-05-12T00:43:12.992Z,100.00
2023-05-12T00:45:40.877Z,100.00
2023-05-12T00:48:09.162Z,100.00
2023-05-12T00:50:36.280Z,100.00
2023-05-12T00:53:03.877Z,100.00
2023-05-12T00:55:31.648Z,100.00
2023-05-12T00:57:59.840Z,100.00
2023-05-12T01:00:27.737Z,100.00
2023-05-12T01:02:57.724Z,100.00
2023-05-12T01:05:30.388Z,100.00
2023-05-12T01:08:04.361Z,100.00
2023-05-12T01:10:32.235Z,100.00
2023-05-12T01:13:00.312Z,100.00
2023-05-12T01:15:28.537Z,100.00
2023-05-12T01:17:59.611Z,100.00
2023-05-12T01:20:27.667Z,100.00
2023-05-12T01:22:55.760Z,100.00
2023-05-12T01:25:44.924Z,100.00
2023-05-12T01:28:11.941Z,100.00
2023-05-12T01:30:41.831Z,100.00
2023-05-12T01:33:10.103Z,100.00
2023-05-12T01:35:39.212Z,100.00
2023-05-12T01:38:06.661Z,100.00
2023-05-12T01:40:34.266Z,100.00
2023-05-12T01:43:02.169Z,100.00
2023-05-12T01:45:33.516Z,100.00
2023-05-12T01:48:01.462Z,100.00
2023-05-12T01:50:30.053Z,100.00
2023-05-12T01:52:57.498Z,100.00
2023-05-12T01:55:25.219Z,100.00
2023-05-12T01:57:53.066Z,100.00
2023-05-12T02:00:21.876Z,100.00
2023-05-12T02:02:49.829Z,100.00
2023-05-12T02:05:18.107Z,100.00
2023-05-12T02:07:45.972Z,100.00
2023-05-12T02:10:13.991Z,100.00
2023-05-12T02:12:45.058Z,100.00
2023-05-12T02:15:12.971Z,100.00
2023-05-12T02:17:41.273Z,100.00
2023-05-12T02:20:12.375Z,100.00
2023-05-12T02:22:40.695Z,100.00
2023-05-12T02:25:09.970Z,100.00
2023-05-12T02:27:37.901Z,100.00
2023-05-12T02:30:08.781Z,100.00
2023-05-12T02:32:37.243Z,100.00
2023-05-12T02:35:06.439Z,100.00
2023-05-12T02:37:34.328Z,100.00
2023-05-12T02:40:01.851Z,100.00
2023-05-12T02:42:34.947Z,100.00
2023-05-12T02:45:03.047Z,100.00
2023-05-12T02:47:33.660Z,100.00
2023-05-12T02:50:01.523Z,100.00
2023-05-12T02:52:29.012Z,100.00
2023-05-12T02:54:56.959Z,100.00
2023-05-12T02:57:26.417Z,100.00
2023-05-12T02:59:53.934Z,100.00
2023-05-12T03:02:22.176Z,100.00
2023-05-12T03:04:50.233Z,100.00
2023-05-12T03:07:17.697Z,100.00
2023-05-12T03:09:44.724Z,100.00
2023-05-12T03:12:12.575Z,100.00
2023-05-12T03:14:41.593Z,100.00
2023-05-12T03:17:09.257Z,100.00
2023-05-12T03:19:37.165Z,100.00
2023-05-12T03:22:07.495Z,100.00
2023-05-12T03:24:35.524Z,100.00
2023-05-12T03:27:03.044Z,100.00
2023-05-12T03:29:31.404Z,100.00
2023-05-12T03:31:59.290Z,100.00
2023-05-12T03:34:27.583Z,100.00
2023-05-12T03:36:55.825Z,100.00
2023-05-12T03:39:24.985Z,100.00
2023-05-12T03:41:53.933Z,100.00
2023-05-12T03:44:22.294Z,100.00
2023-05-12T03:46:50.272Z,100.00
2023-05-12T03:49:18.284Z,100.00
2023-05-12T03:51:46.183Z,100.00
2023-05-12T03:54:14.227Z,100.00
2023-05-12T03:56:42.035Z,100.00
2023-05-12T03:59:11.976Z,100.00
2023-05-12T04:01:40.100Z,100.00
2023-05-12T04:04:08.070Z,100.00
2023-05-12T04:06:37.211Z,100.00
2023-05-12T04:09:07.691Z,100.00
2023-05-12T04:11:35.600Z,100.00
2023-05-12T04:14:03.589Z,100.00
2023-05-12T04:16:31.512Z,100.00
2023-05-12T04:18:59.441Z,100.00
2023-05-12T04:21:26.925Z,100.00
2023-05-12T04:23:55.382Z,100.00
2023-05-12T04:26:23.844Z,100.00
2023-05-12T04:28:52.071Z,100.00
2023-05-12T04:31:20.174Z,100.00
2023-05-12T04:33:48.520Z,100.00
2023-05-12T04:36:17.596Z,100.00
2023-05-12T04:38:45.438Z,100.00
2023-05-12T04:41:13.246Z,100.00
2023-05-12T04:46:12.147Z,100.00
2023-05-12T04:48:42.097Z,100.00
2023-05-12T04:51:10.061Z,100.00
2023-05-12T04:53:38.108Z,100.00
2023-05-12T04:56:05.926Z,100.00
2023-05-12T04:58:33.770Z,100.00
2023-05-12T05:01:01.574Z,100.00
2023-05-12T05:03:29.441Z,100.00
2023-05-12T05:05:57.729Z,100.00
2023-05-12T05:08:25.634Z,100.00
2023-05-12T05:10:53.153Z,100.00
2023-05-12T05:13:21.463Z,100.00
2023-05-12T05:15:55.545Z,100.00
2023-05-12T05:18:24.453Z,100.00
2023-05-12T05:20:57.235Z,100.00
2023-05-12T05:23:26.448Z,100.00
2023-05-12T05:25:54.079Z,100.00
2023-05-12T05:28:21.543Z,100.00
2023-05-12T05:30:49.060Z,100.00
2023-05-12T05:33:17.007Z,100.00
2023-05-12T05:35:45.500Z,100.00
2023-05-12T05:38:13.257Z,100.00
2023-05-12T05:40:52.167Z,100.00
2023-05-12T05:43:21.330Z,100.00
2023-05-12T05:45:49.869Z,100.00
2023-05-12T05:48:18.013Z,100.00
2023-05-12T05:50:46.007Z,100.00
2023-05-12T05:53:13.580Z,100.00
2023-05-12T05:55:41.354Z,100.00
2023-05-12T05:58:09.255Z,100.00
2023-05-12T06:00:37.180Z,100.00
2023-05-12T06:03:04.859Z,100.00
2023-05-12T06:05:32.782Z,100.00
2023-05-12T06:08:01.529Z,100.00
2023-05-12T06:10:29.751Z,100.00
2023-05-12T06:12:57.843Z,100.00
2023-05-12T06:15:25.633Z,100.00
2023-05-12T06:17:53.558Z,100.00
2023-05-12T06:20:23.180Z,100.00
2023-05-12T06:22:51.849Z,100.00
2023-05-12T06:25:19.090Z,100.00
2023-05-12T06:27:47.238Z,100.00
2023-05-12T06:30:16.995Z,100.00
2023-05-12T06:32:44.664Z,100.00
2023-05-12T06:35:12.431Z,100.00
2023-05-12T06:37:40.230Z,100.00
2023-05-12T06:40:10.754Z,100.00
2023-05-12T06:42:37.777Z,100.00
2023-05-12T06:45:08.874Z,100.00
2023-05-12T06:47:36.913Z,100.00
2023-05-12T06:50:12.130Z,100.00
2023-05-12T06:52:39.907Z,100.00
2023-05-12T06:55:08.563Z,100.00
2023-05-12T06:57:36.069Z,100.00
2023-05-12T07:00:04.931Z,100.00
2023-05-12T07:02:32.891Z,100.00
2023-05-12T07:05:00.968Z,100.00
2023-05-12T07:07:28.732Z,100.00
2023-05-12T07:09:57.251Z,100.00
2023-05-12T07:12:25.268Z,100.00
2023-05-12T07:14:53.221Z,100.00
2023-05-12T07:17:21.964Z,100.00
2023-05-12T07:19:49.514Z,100.00
2023-05-12T07:22:17.464Z,100.00
2023-05-12T07:24:45.311Z,100.00
2023-05-12T07:27:13.613Z,100.00
2023-05-12T07:29:41.884Z,100.00
2023-05-12T07:32:09.703Z,100.00
2023-05-12T07:34:40.149Z,100.00
2023-05-12T07:37:08.054Z,100.00
2023-05-12T07:39:35.133Z,100.00
2023-05-12T07:42:02.616Z,100.00
2023-05-12T07:44:31.098Z,100.00
2023-05-12T07:46:58.964Z,100.00
2023-05-12T07:49:26.903Z,100.00
2023-05-12T07:51:54.813Z,100.00
2023-05-12T07:54:22.751Z,100.00
2023-05-12T07:56:50.283Z,99.27
2023-05-12T07:59:18.100Z,98.49
2023-05-12T08:01:45.764Z,96.88
2023-05-12T08:04:14.326Z,95.87
2023-05-12T08:06:42.351Z,92.96
2023-05-12T08:09:10.164Z,93.02
2023-05-12T08:11:37.669Z,94.38
2023-05-12T08:14:05.553Z,93.42
2023-05-12T08:16:33.943Z,91.63
2023-05-12T08:19:01.981Z,92.00
2023-05-12T08:21:30.357Z,92.24
2023-05-12T08:23:58.118Z,89.50
2023-05-12T08:26:25.792Z,91.56
2023-05-12T08:28:53.743Z,91.25
2023-05-12T08:31:21.008Z,89.99
2023-05-12T08:33:51.817Z,89.47
2023-05-12T08:36:27.444Z,90.50
2023-05-12T08:38:56.356Z,90.31
2023-05-12T08:41:40.263Z,90.79
2023-05-12T08:44:07.684Z,90.24
2023-05-12T08:46:35.659Z,88.73
2023-05-12T08:49:03.580Z,88.16
2023-05-12T08:51:33.523Z,86.64
2023-05-12T08:54:01.497Z,87.46
2023-05-12T08:58:59.853Z,88.45
2023-05-12T09:01:28.151Z,88.25
2023-05-12T09:03:56.322Z,87.21
2023-05-12T09:06:24.332Z,86.24
2023-05-12T09:08:51.301Z,84.61
2023-05-12T09:11:19.203Z,84.33
2023-05-12T09:14:01.654Z,85.86
2023-05-12T09:16:30.812Z,86.61
2023-05-12T09:19:00.172Z,85.56
2023-05-12T09:21:28.278Z,85.69
2023-05-12T09:24:00.001Z,85.13
2023-05-12T09:26:27.866Z,84.95
2023-05-12T09:29:08.788Z,85.17
2023-05-12T09:31:36.959Z,84.85
2023-05-12T09:34:10.901Z,85.72
2023-05-12T09:39:27.549Z,86.60
2023-05-12T09:41:55.501Z,87.27
2023-05-12T09:44:24.262Z,87.93
2023-05-12T09:46:52.734Z,87.43
2023-05-12T09:49:42.394Z,87.07
2023-05-12T09:52:10.453Z,84.56
2023-05-12T09:54:37.620Z,85.13
2023-05-12T09:57:06.433Z,85.89
2023-05-12T09:59:34.378Z,83.56
2023-05-12T10:02:02.644Z,82.74
2023-05-12T10:04:30.594Z,83.73
2023-05-12T10:06:58.254Z,82.70
2023-05-12T10:09:34.197Z,83.56
2023-05-12T10:12:01.850Z,83.74
2023-05-12T10:14:29.512Z,83.42
2023-05-12T10:16:57.190Z,82.38
2023-05-12T10:19:25.051Z,82.53
2023-05-12T10:21:53.360Z,83.11
2023-05-12T10:24:21.410Z,81.76
2023-05-12T10:26:49.493Z,80.70
2023-05-12T10:29:17.263Z,80.01
2023-05-12T10:31:45.342Z,79.54
2023-05-12T10:34:17.719Z,79.02
2023-05-12T10:36:52.252Z,79.64
2023-05-12T10:39:20.055Z,79.14
2023-05-12T10:41:47.457Z,79.54
2023-05-12T10:44:15.406Z,79.51
2023-05-12T10:46:42.612Z,79.03
2023-05-12T10:49:10.716Z,80.06
2023-05-12T10:51:37.823Z,80.50
2023-05-12T10:54:06.343Z,80.95
2023-05-12T10:56:39.626Z,80.66
2023-05-12T10:59:48.222Z,80.91
2023-05-12T11:02:18.617Z,80.62
2023-05-12T11:04:55.934Z,81.39
2023-05-12T11:07:27.103Z,81.47
2023-05-12T11:09:59.094Z,81.23
2023-05-12T11:12:28.875Z,81.00
2023-05-12T11:14:56.734Z,80.21
2023-05-12T11:17:24.261Z,80.48
2023-05-12T11:19:52.716Z,79.25
2023-05-12T11:22:22.103Z,78.56
2023-05-12T11:24:49.668Z,77.58
2023-05-12T11:27:18.028Z,77.47
2023-05-12T11:29:47.246Z,77.36
2023-05-12T11:32:16.487Z,75.59
2023-05-12T11:34:44.706Z,73.46
2023-05-12T11:37:12.823Z,72.13
2023-05-12T11:39:40.444Z,71.88
2023-05-12T11:42:13.524Z,70.31
2023-05-12T11:44:48.309Z,71.17
2023-05-12T11:47:16.527Z,71.07
2023-05-12T11:50:13.625Z,70.74
2023-05-12T11:52:41.526Z,71.28
2023-05-12T11:55:10.809Z,68.96
2023-05-12T11:57:39.523Z,69.08
2023-05-12T12:00:10.037Z,69.57
2023-05-12T12:02:39.770Z,70.65
2023-05-12T12:05:18.981Z,70.78
2023-05-12T12:07:47.010Z,68.90
2023-05-12T12:10:14.616Z,70.42
2023-05-12T12:12:42.572Z,67.52
2023-05-12T12:15:14.683Z,68.30
2023-05-12T12:17:42.684Z,68.06
2023-05-12T12:20:12.741Z,67.34
2023-05-12T12:22:40.625Z,64.99
2023-05-12T12:25:10.508Z,63.63
2023-05-12T12:27:38.376Z,61.00
2023-05-12T12:30:08.471Z,60.65
2023-05-12T12:32:36.560Z,55.21
2023-05-12T12:35:06.697Z,52.40
2023-05-12T12:37:35.669Z,51.75
2023-05-12T12:40:11.657Z,53.43
2023-05-12T12:42:41.345Z,55.34
2023-05-12T12:45:12.084Z,57.26
2023-05-12T12:47:40.136Z,54.19
2023-05-12T12:50:12.286Z,52.69
2023-05-12T12:52:40.487Z,50.56
2023-05-12T12:55:10.112Z,47.80
2023-05-12T12:57:40.869Z,49.78
2023-05-12T13:00:11.988Z,49.15
2023-05-12T13:02:42.986Z,48.02
2023-05-12T13:05:15.176Z,46.04
2023-05-12T13:07:43.590Z,44.60
2023-05-12T13:10:13.260Z,43.64
2023-05-12T13:12:44.098Z,45.64
2023-05-12T13:15:14.664Z,46.76
2023-05-12T13:17:43.057Z,43.73
2023-05-12T13:20:12.929Z,41.90
2023-05-12T13:22:42.200Z,40.13
2023-05-12T13:25:11.372Z,40.10
2023-05-12T13:27:41.028Z,41.11
2023-05-12T13:30:10.290Z,41.76
2023-05-12T13:32:40.126Z,42.61
2023-05-12T13:35:09.496Z,40.61
2023-05-12T13:37:37.490Z,39.22
2023-05-12T13:40:07.977Z,39.85
2023-05-12T13:42:35.495Z,40.04
2023-05-12T13:45:04.384Z,38.50
2023-05-12T13:47:32.315Z,37.84
2023-05-12T13:50:00.314Z,36.26
2023-05-12T13:52:28.295Z,36.26
2023-05-12T13:54:56.082Z,34.94
2023-05-12T13:57:24.070Z,32.93
2023-05-12T13:59:52.142Z,33.77
2023-05-12T14:02:20.351Z,32.81
2023-05-12T14:04:47.906Z,31.75
2023-05-12T14:07:15.391Z,32.27
2023-05-12T14:09:43.305Z,32.98
2023-05-12T14:12:11.186Z,33.97
2023-05-12T14:14:39.461Z,35.11
2023-05-12T14:17:07.356Z,35.16
2023-05-12T14:19:35.788Z,34.05
2023-05-12T14:22:07.825Z,32.91
2023-05-12T14:24:40.031Z,32.02
2023-05-12T14:27:07.526Z,30.55
2023-05-12T14:29:35.417Z,31.84
2023-05-12T14:32:04.437Z,33.44
2023-05-12T14:34:32.398Z,35.80
2023-05-12T14:37:00.231Z,37.71
2023-05-12T14:39:28.108Z,39.46
2023-05-12T14:41:56.015Z,40.94
2023-05-12T14:44:23.911Z,42.57
2023-05-12T14:46:51.922Z,44.47
2023-05-12T14:49:22.067Z,45.02
2023-05-12T14:51:49.648Z,45.45
2023-05-12T14:54:25.246Z,45.86
2023-05-12T14:56:53.416Z,46.43
2023-05-12T14:59:22.362Z,47.91
2023-05-12T15:01:50.481Z,45.35
2023-05-12T15:04:18.427Z,41.85
2023-05-12T15:06:46.416Z,38.12
2023-05-12T15:09:14.213Z,36.98
2023-05-12T15:11:44.600Z,36.57
2023-05-12T15:14:12.773Z,35.05
2023-05-12T15:16:40.271Z,35.48
2023-05-12T15:19:07.969Z,35.36
2023-05-12T15:21:36.762Z,35.44
2023-05-12T15:24:04.442Z,35.41
2023-05-12T15:26:34.121Z,34.87
2023-05-12T15:29:02.834Z,34.36
2023-05-12T15:31:31.063Z,34.75
2023-05-12T15:33:58.716Z,34.08
2023-05-12T15:36:27.064Z,35.30
2023-05-12T15:38:55.401Z,36.73
2023-05-12T15:41:23.017Z,38.31
2023-05-12T15:43:50.744Z,40.19
2023-05-12T15:46:18.378Z,40.95
2023-05-12T15:48:46.232Z,40.70
2023-05-12T15:51:14.119Z,38.79
2023-05-12T15:53:42.158Z,39.15
2023-05-12T15:56:12.194Z,38.65
2023-05-12T15:58:40.057Z,37.03
2023-05-12T16:01:08.563Z,37.20
2023-05-12T16:03:36.656Z,36.60
2023-05-12T16:06:06.378Z,37.40
2023-05-12T16:08:34.844Z,38.38
2023-05-12T16:11:02.476Z,39.11
2023-05-12T16:13:30.638Z,40.67
2023-05-12T16:15:58.616Z,41.79
2023-05-12T16:18:27.462Z,43.79
2023-05-12T16:20:55.357Z,43.98
2023-05-12T16:23:23.184Z,44.93
2023-05-12T16:25:51.127Z,46.89
2023-05-12T16:28:18.836Z,47.14
2023-05-12T16:30:45.875Z,47.96
2023-05-12T16:33:13.941Z,47.41
2023-05-12T16:35:41.969Z,48.11
2023-05-12T16:38:09.630Z,48.98
2023-05-12T16:40:37.139Z,49.82
2023-05-12T16:43:05.009Z,50.76
2023-05-12T16:45:33.120Z,50.33
2023-05-12T16:48:00.615Z,50.25
2023-05-12T16:50:28.240Z,49.90
2023-05-12T16:52:55.748Z,49.90
2023-05-12T16:55:24.041Z,49.21
2023-05-12T16:57:51.648Z,49.79
2023-05-12T17:00:20.959Z,50.72
2023-05-12T17:02:48.732Z,52.23
2023-05-12T17:05:16.753Z,52.90
2023-05-12T17:07:44.280Z,54.61
2023-05-12T17:10:12.845Z,55.13
2023-05-12T17:12:40.725Z,56.03
2023-05-12T17:15:11.520Z,56.19
2023-05-12T17:17:39.423Z,57.20
2023-05-12T17:20:10.021Z,57.65
2023-05-12T17:22:41.548Z,56.70
2023-05-12T17:25:09.983Z,56.00
2023-05-12T17:27:37.952Z,57.07
2023-05-12T17:30:09.250Z,58.15
2023-05-12T17:32:37.427Z,58.92
2023-05-12T17:35:06.693Z,59.67
2023-05-12T17:37:34.676Z,61.16
2023-05-12T17:40:01.887Z,61.24
2023-05-12T17:42:31.895Z,60.82
2023-05-12T17:44:59.480Z,61.09
2023-05-12T17:47:27.345Z,60.70
2023-05-12T17:49:54.949Z,61.47
2023-05-12T17:52:23.009Z,61.19
2023-05-12T17:54:50.988Z,60.88
2023-05-12T17:57:19.111Z,60.20
2023-05-12T17:59:47.073Z,59.02
2023-05-12T18:02:15.101Z,56.67
2023-05-12T18:04:43.352Z,55.86
2023-05-12T18:07:10.796Z,56.11
2023-05-12T18:09:38.386Z,57.51
2023-05-12T18:12:07.719Z,58.11
2023-05-12T18:14:35.206Z,59.79
2023-05-12T18:17:03.105Z,61.39
2023-05-12T18:19:30.626Z,61.68
2023-05-12T18:21:58.546Z,62.73
2023-05-12T18:24:26.143Z,62.72
2023-05-12T18:26:54.036Z,63.33
2023-05-12T18:29:21.850Z,64.03
2023-05-12T18:31:49.615Z,64.69
2023-05-12T18:34:17.286Z,65.51
2023-05-12T18:36:45.501Z,65.65
2023-05-12T18:39:13.681Z,65.47
2023-05-12T18:41:41.602Z,66.25
2023-05-12T18:44:10.492Z,66.69
2023-05-12T18:46:38.188Z,66.95
2023-05-12T18:49:06.158Z,67.10
2023-05-12T18:51:34.289Z,67.73
2023-05-12T18:54:02.403Z,67.61
2023-05-12T18:56:29.979Z,68.11
2023-05-12T18:58:57.724Z,68.37
2023-05-12T19:01:31.198Z,68.25
2023-05-12T19:03:58.777Z,68.78
2023-05-12T19:06:27.014Z,70.09
2023-05-12T19:08:54.894Z,71.22
2023-05-12T19:11:22.442Z,71.74
2023-05-12T19:13:50.872Z,71.68
2023-05-12T19:16:18.989Z,72.50
2023-05-12T19:18:47.272Z,72.87
2023-05-12T19:21:15.160Z,73.26
2023-05-12T19:23:42.348Z,74.68
2023-05-12T19:26:10.874Z,75.37
2023-05-12T19:28:39.180Z,75.88
2023-05-12T19:31:06.268Z,76.84
2023-05-12T19:33:35.238Z,77.38
2023-05-12T19:36:03.210Z,77.24
2023-05-12T19:38:31.037Z,77.59
2023-05-12T19:40:59.061Z,78.53
2023-05-12T19:43:26.950Z,78.22
2023-05-12T19:45:55.011Z,78.29
2023-05-12T19:48:22.942Z,77.34
2023-05-12T19:50:50.502Z,77.39
2023-05-12T19:53:17.960Z,78.14
2023-05-12T19:55:45.469Z,78.34
2023-05-12T19:58:13.395Z,78.43
2023-05-12T20:00:41.331Z,78.14
2023-05-12T20:03:09.312Z,78.49
2023-05-12T20:05:37.543Z,78.51
2023-05-12T20:08:06.000Z,77.80
2023-05-12T20:10:33.961Z,78.27
2023-05-12T20:13:03.839Z,78.49
2023-05-12T20:15:31.573Z,78.28
2023-05-12T20:17:59.545Z,77.89
2023-05-12T20:20:27.070Z,77.73
2023-05-12T20:22:54.606Z,78.27
2023-05-12T20:25:22.287Z,78.85
2023-05-12T20:27:50.064Z,79.12
2023-05-12T20:30:17.992Z,79.66
2023-05-12T20:32:46.110Z,79.77
2023-05-12T20:35:14.176Z,81.15
2023-05-12T20:37:41.935Z,81.11
2023-05-12T20:40:11.305Z,81.20
2023-05-12T20:42:38.870Z,81.15
2023-05-12T20:45:08.931Z,81.65
2023-05-12T20:47:37.361Z,81.29
2023-05-12T20:50:07.556Z,80.88
2023-05-12T20:52:37.553Z,81.25
2023-05-12T20:55:07.532Z,81.28
2023-05-12T20:57:35.543Z,82.15
2023-05-12T21:00:04.271Z,82.20
2023-05-12T21:02:32.018Z,82.53
2023-05-12T21:05:00.034Z,82.91
2023-05-12T21:07:28.039Z,82.09
2023-05-12T21:09:55.975Z,82.44
2023-05-12T21:12:23.693Z,82.16
2023-05-12T21:14:51.777Z,82.42
2023-05-12T21:17:19.656Z,82.36
2023-05-12T21:19:47.286Z,82.19
2023-05-12T21:22:15.235Z,82.86
2023-05-12T21:24:43.050Z,82.64
2023-05-12T21:27:11.597Z,83.09
2023-05-12T21:29:39.565Z,83.25
2023-05-12T21:32:09.119Z,83.74
2023-05-12T21:34:36.814Z,84.30
2023-05-12T21:37:04.535Z,84.77
2023-05-12T21:39:32.060Z,85.07
2023-05-12T21:41:59.592Z,85.22
2023-05-12T21:44:27.274Z,86.16
2023-05-12T21:46:54.730Z,86.41
2023-05-12T21:49:22.746Z,86.71
2023-05-12T21:51:50.481Z,87.48
2023-05-12T21:54:18.233Z,87.41
2023-05-12T21:56:46.150Z,87.71
2023-05-12T21:59:15.206Z,87.68
2023-05-12T22:01:43.053Z,87.29
2023-05-12T22:04:10.575Z,87.23
2023-05-12T22:06:38.533Z,87.16
2023-05-12T22:09:06.733Z,86.70
2023-05-12T22:11:34.608Z,86.05
2023-05-12T22:14:05.299Z,85.07
2023-05-12T22:16:41.369Z,85.66
2023-05-12T22:19:09.886Z,85.31
2023-05-12T22:21:37.901Z,84.76
2023-05-12T22:24:05.358Z,84.09
2023-05-12T22:26:36.652Z,83.64
2023-05-12T22:29:07.166Z,83.70
2023-05-12T22:31:34.855Z,82.98
2023-05-12T22:34:04.428Z,82.90
2023-05-12T22:36:35.309Z,82.65
2023-05-12T22:39:13.462Z,82.78
2023-05-12T22:41:41.515Z,83.01
2023-05-12T22:44:09.163Z,82.46
2023-05-12T22:46:40.017Z,82.39
2023-05-12T22:49:07.757Z,82.78
2023-05-12T22:51:35.701Z,82.86
2023-05-12T22:54:06.012Z,82.65
2023-05-12T22:56:33.510Z,82.48
2023-05-12T22:59:02.517Z,82.83
2023-05-12T23:01:30.109Z,82.76
2023-05-12T23:03:57.689Z,82.48
2023-05-12T23:06:27.586Z,82.88
2023-05-12T23:08:55.726Z,82.76
2023-05-12T23:11:23.865Z,81.65
2023-05-12T23:13:51.762Z,81.38
2023-05-12T23:16:19.742Z,81.51
2023-05-12T23:18:47.730Z,82.58
2023-05-12T23:21:15.785Z,82.68
2023-05-12T23:23:43.805Z,83.64
2023-05-12T23:26:11.661Z,84.60
2023-05-12T23:28:39.123Z,84.98
2023-05-12T23:31:07.508Z,85.62
2023-05-12T23:33:35.531Z,86.13
2023-05-12T23:36:03.137Z,87.11
2023-05-12T23:38:31.153Z,87.47
2023-05-12T23:40:58.991Z,87.07
2023-05-12T23:46:09.132Z,87.31
2023-05-12T23:48:37.557Z,87.70
2023-05-12T23:51:05.904Z,88.40
